Time;durP1;ratioP1;P1;durP2;ratioP2;P2;SDS_P1;SDS_P2;PMS_P1;PMS_P2;Temp;Humidity;BMP_temperature;BMP_pressure;BME280_temperature;BME280_humidity;BME280_pressure;Samples;Min_cycle;Max_cycle;Signal;HPM_P1;HPM_P2
2022/11/30 00:00:58;;;;;;;34.33;24.48;;;;;;;;;;5040180;28;20145;-72
2022/11/30 00:03:24;;;;;;;37.45;25.83;;;;;;;;;;5038349;28;20052;-73
2022/11/30 00:05:50;;;;;;;38.92;26.20;;;;;;;;;;5042913;28;20052;-73
2022/11/30 00:08:16;;;;;;;39.22;24.77;;;;;;;;;;5023004;28;20055;-73
2022/11/30 00:10:43;;;;;;;37.60;25.75;;;;;;;;;;5043384;28;20225;-74
2022/11/30 00:13:09;;;;;;;37.72;25.13;;;;;;;;;;5044898;28;20048;-74
2022/11/30 00:15:35;;;;;;;39.95;26.15;;;;;;;;;;5041529;28;20049;-72
2022/11/30 00:18:01;;;;;;;35.70;24.08;;;;;;;;;;5038699;28;20052;-72
2022/11/30 00:20:28;;;;;;;36.45;25.02;;;;;;;;;;5042560;28;20186;-71
2022/11/30 00:22:55;;;;;;;38.05;26.02;;;;;;;;;;5040578;28;20055;-72
2022/11/30 00:25:21;;;;;;;33.85;24.65;;;;;;;;;;5041769;28;20065;-73
2022/11/30 00:27:47;;;;;;;40.65;26.33;;;;;;;;;;5042185;28;20048;-72
2022/11/30 00:30:13;;;;;;;35.92;25.20;;;;;;;;;;5041900;28;20259;-71
2022/11/30 00:32:39;;;;;;;36.35;25.08;;;;;;;;;;5040557;28;20041;-71
2022/11/30 00:35:05;;;;;;;37.53;25.63;;;;;;;;;;5040428;28;20065;-72
2022/11/30 00:37:31;;;;;;;34.35;23.90;;;;;;;;;;5023213;28;20130;-72
2022/11/30 00:39:57;;;;;;;36.38;24.27;;;;;;;;;;5025653;28;20037;-71
2022/11/30 00:42:23;;;;;;;35.72;24.15;;;;;;;;;;5044620;28;20056;-72
2022/11/30 00:44:49;;;;;;;35.97;23.70;;;;;;;;;;5040694;28;20037;-72
2022/11/30 00:47:15;;;;;;;38.40;24.00;;;;;;;;;;5041121;28;20041;-72
2022/11/30 00:49:41;;;;;;;41.08;24.17;;;;;;;;;;5038466;28;20037;-72
2022/11/30 00:52:07;;;;;;;34.22;22.60;;;;;;;;;;5042129;28;20591;-73
2022/11/30 00:54:33;;;;;;;33.83;23.92;;;;;;;;;;5041878;28;20041;-73
2022/11/30 00:56:59;;;;;;;35.95;24.08;;;;;;;;;;5042300;28;20056;-71
2022/11/30 00:59:25;;;;;;;38.88;25.58;;;;;;;;;;5040699;28;20403;-71
2022/11/30 01:01:53;;;;;;;34.13;22.88;;;;;;;;;;5040562;28;20049;-74
2022/11/30 01:04:19;;;;;;;36.22;23.52;;;;;;;;;;5041707;28;20037;-71
2022/11/30 01:06:45;;;;;;;44.55;24.67;;;;;;;;;;5041589;28;20044;-72
2022/11/30 01:09:11;;;;;;;35.35;23.92;;;;;;;;;;5043658;28;20045;-72
2022/11/30 01:11:37;;;;;;;40.47;23.08;;;;;;;;;;5043447;28;20052;-72
2022/11/30 01:14:03;;;;;;;37.47;24.58;;;;;;;;;;5044883;28;20049;-71
2022/11/30 01:16:31;;;;;;;43.22;27.05;;;;;;;;;;5045668;28;20044;-71
2022/11/30 01:18:57;;;;;;;37.58;24.80;;;;;;;;;;5043555;28;20045;-72
2022/11/30 01:21:24;;;;;;;35.70;23.27;;;;;;;;;;5044399;28;20806;-72
2022/11/30 01:23:50;;;;;;;36.33;22.35;;;;;;;;;;5028630;28;20052;-72
2022/11/30 01:26:17;;;;;;;37.88;22.77;;;;;;;;;;5044765;28;20055;-72
2022/11/30 01:28:43;;;;;;;37.42;23.05;;;;;;;;;;5045664;28;20614;-71
2022/11/30 01:31:10;;;;;;;36.83;24.85;;;;;;;;;;5044704;28;20384;-71
2022/11/30 01:33:36;;;;;;;43.30;27.33;;;;;;;;;;5044182;28;20059;-72
2022/11/30 01:36:04;;;;;;;45.13;26.95;;;;;;;;;;5042077;28;20057;-72
2022/11/30 01:38:34;;;;;;;39.22;26.50;;;;;;;;;;5044319;28;20055;-71
2022/11/30 01:41:00;;;;;;;45.83;26.48;;;;;;;;;;5043281;28;20550;-71
2022/11/30 01:43:37;;;;;;;41.28;26.45;;;;;;;;;;5042706;28;20061;-71
2022/11/30 01:46:03;;;;;;;47.20;29.13;;;;;;;;;;5044500;28;20036;-71
2022/11/30 01:48:29;;;;;;;45.70;29.40;;;;;;;;;;5041060;28;20480;-71
2022/11/30 01:50:55;;;;;;;48.08;30.10;;;;;;;;;;5043380;28;20038;-71
2022/11/30 01:53:21;;;;;;;45.58;28.83;;;;;;;;;;5039672;28;20040;-71
2022/11/30 01:55:48;;;;;;;45.80;28.33;;;;;;;;;;5042283;28;20048;-73
2022/11/30 01:58:29;;;;;;;50.55;30.10;;;;;;;;;;5043440;28;20052;-73
2022/11/30 02:00:55;;;;;;;45.22;28.02;;;;;;;;;;5042000;28;20049;-73
2022/11/30 02:03:40;;;;;;;48.42;29.80;;;;;;;;;;5026577;28;20056;-73
2022/11/30 02:06:07;;;;;;;46.15;29.58;;;;;;;;;;5044340;28;20049;-70
2022/11/30 02:08:33;;;;;;;44.63;28.65;;;;;;;;;;5043525;28;20553;-73
2022/11/30 02:11:02;;;;;;;45.15;28.40;;;;;;;;;;5025575;28;20033;-73
2022/11/30 02:13:41;;;;;;;41.92;28.40;;;;;;;;;;5044858;28;20044;-73
2022/11/30 02:16:10;;;;;;;45.40;29.00;;;;;;;;;;5039996;28;20139;-74
2022/11/30 02:18:45;;;;;;;42.60;29.52;;;;;;;;;;5043629;28;20052;-73
2022/11/30 02:21:32;;;;;;;41.97;28.23;;;;;;;;;;5043526;28;20049;-74
2022/11/30 02:23:58;;;;;;;46.65;30.00;;;;;;;;;;5044929;28;20044;-73
2022/11/30 02:26:36;;;;;;;44.78;30.38;;;;;;;;;;5042199;28;20047;-70
2022/11/30 02:29:31;;;;;;;41.88;28.17;;;;;;;;;;5042340;28;20052;-73
2022/11/30 02:32:06;;;;;;;44.25;28.63;;;;;;;;;;5024169;28;20139;-73
2022/11/30 02:34:33;;;;;;;43.63;28.50;;;;;;;;;;5042691;28;20135;-72
2022/11/30 02:37:00;;;;;;;44.72;29.33;;;;;;;;;;5044303;28;20510;-73
2022/11/30 02:39:26;;;;;;;44.05;28.92;;;;;;;;;;5044614;28;20446;-71
2022/11/30 02:41:52;;;;;;;47.92;30.02;;;;;;;;;;5042311;28;20045;-71
2022/11/30 02:44:19;;;;;;;42.60;28.95;;;;;;;;;;5042528;28;20048;-72
2022/11/30 02:46:52;;;;;;;45.97;28.23;;;;;;;;;;5043814;28;20049;-71
2022/11/30 02:49:33;;;;;;;45.03;29.33;;;;;;;;;;5043241;28;20075;-73
2022/11/30 02:52:00;;;;;;;46.92;29.33;;;;;;;;;;5042877;28;20045;-73
2022/11/30 02:54:26;;;;;;;44.60;29.63;;;;;;;;;;5043541;28;20060;-70
2022/11/30 02:56:52;;;;;;;46.67;29.63;;;;;;;;;;5042160;28;20040;-73
2022/11/30 02:59:19;;;;;;;43.50;29.00;;;;;;;;;;5044838;28;20063;-73
2022/11/30 03:01:45;;;;;;;46.30;30.33;;;;;;;;;;5042597;28;20049;-72
2022/11/30 03:04:11;;;;;;;42.03;29.42;;;;;;;;;;5041722;28;20041;-72
2022/11/30 03:06:37;;;;;;;46.47;31.40;;;;;;;;;;5035259;28;20040;-70
2022/11/30 03:09:03;;;;;;;46.40;30.50;;;;;;;;;;5045669;28;20052;-72
2022/11/30 03:11:29;;;;;;;46.85;30.17;;;;;;;;;;5042713;28;20037;-73
2022/11/30 03:13:55;;;;;;;49.78;31.60;;;;;;;;;;5043705;28;20053;-73
2022/11/30 03:16:21;;;;;;;48.25;29.95;;;;;;;;;;5041340;28;20050;-73
2022/11/30 03:18:47;;;;;;;54.15;32.10;;;;;;;;;;5042905;28;20041;-71
2022/11/30 03:21:13;;;;;;;51.88;33.03;;;;;;;;;;5041843;28;20536;-72
2022/11/30 03:23:40;;;;;;;50.20;32.80;;;;;;;;;;5040660;28;20048;-73
2022/11/30 03:26:07;;;;;;;49.40;31.85;;;;;;;;;;5041100;28;20488;-73
2022/11/30 03:28:33;;;;;;;51.95;31.42;;;;;;;;;;5042852;28;20055;-72
2022/11/30 03:30:59;;;;;;;47.63;30.58;;;;;;;;;;5039118;28;20049;-72
2022/11/30 03:33:25;;;;;;;50.33;31.88;;;;;;;;;;5041990;28;20067;-73
2022/11/30 03:36:05;;;;;;;54.58;31.98;;;;;;;;;;5025238;28;20049;-73
2022/11/30 03:38:32;;;;;;;52.22;33.33;;;;;;;;;;5041833;28;20040;-73
2022/11/30 03:41:02;;;;;;;53.03;34.03;;;;;;;;;;5039172;28;20052;-70
2022/11/30 03:43:28;;;;;;;49.47;32.78;;;;;;;;;;5039509;28;20662;-69
2022/11/30 03:45:54;;;;;;;50.47;31.20;;;;;;;;;;5038294;28;20136;-73
2022/11/30 03:48:21;;;;;;;53.38;34.38;;;;;;;;;;5040295;28;20044;-73
2022/11/30 03:50:48;;;;;;;57.30;33.08;;;;;;;;;;5043878;28;20056;-71
2022/11/30 03:53:18;;;;;;;51.47;32.20;;;;;;;;;;5038842;28;20048;-70
2022/11/30 03:55:44;;;;;;;54.63;33.25;;;;;;;;;;5025396;28;20057;-73
2022/11/30 03:58:10;;;;;;;51.65;33.42;;;;;;;;;;5040275;28;20053;-72
2022/11/30 04:00:36;;;;;;;54.75;32.85;;;;;;;;;;5042049;28;20136;-73
2022/11/30 04:03:02;;;;;;;56.20;34.42;;;;;;;;;;5042368;28;20049;-70
2022/11/30 04:05:28;;;;;;;51.85;32.25;;;;;;;;;;5039136;28;20075;-70
2022/11/30 04:07:54;;;;;;;52.08;33.85;;;;;;;;;;5041111;28;20045;-73
2022/11/30 04:10:22;;;;;;;54.53;30.95;;;;;;;;;;5041128;28;20048;-73
2022/11/30 04:12:48;;;;;;;52.05;32.95;;;;;;;;;;5040825;28;20045;-73
2022/11/30 04:15:14;;;;;;;51.80;32.38;;;;;;;;;;5040358;28;20102;-72
2022/11/30 04:17:40;;;;;;;58.28;33.83;;;;;;;;;;5040393;28;20041;-73
2022/11/30 04:20:06;;;;;;;58.72;34.00;;;;;;;;;;5040393;28;20411;-72
2022/11/30 04:22:33;;;;;;;56.65;33.88;;;;;;;;;;5040557;28;20354;-73
2022/11/30 04:24:59;;;;;;;54.30;32.83;;;;;;;;;;5042490;28;20041;-72
2022/11/30 04:27:25;;;;;;;57.72;33.60;;;;;;;;;;5040325;28;20127;-72
2022/11/30 04:29:51;;;;;;;54.72;33.97;;;;;;;;;;5039054;28;20048;-73
2022/11/30 04:32:17;;;;;;;53.88;33.00;;;;;;;;;;5041226;28;20049;-73
2022/11/30 04:34:42;;;;;;;54.10;32.95;;;;;;;;;;5042599;28;20144;-72
2022/11/30 04:37:08;;;;;;;55.83;33.47;;;;;;;;;;5040478;28;20408;-70
2022/11/30 04:39:34;;;;;;;56.88;33.20;;;;;;;;;;5024899;28;20049;-71
2022/11/30 04:42:01;;;;;;;59.08;34.13;;;;;;;;;;5041967;28;20136;-72
2022/11/30 04:44:27;;;;;;;63.35;35.17;;;;;;;;;;5030419;28;20044;-71
2022/11/30 04:46:53;;;;;;;56.22;33.50;;;;;;;;;;5045433;28;20041;-71
2022/11/30 04:49:19;;;;;;;60.13;34.28;;;;;;;;;;5044769;28;20396;-73
2022/11/30 04:51:45;;;;;;;61.88;34.10;;;;;;;;;;5042028;28;20041;-73
2022/11/30 04:54:11;;;;;;;58.83;32.55;;;;;;;;;;5045203;28;20179;-73
2022/11/30 04:56:37;;;;;;;57.38;34.40;;;;;;;;;;5043562;28;20040;-73
2022/11/30 04:59:03;;;;;;;61.95;33.58;;;;;;;;;;5044120;28;20132;-73
2022/11/30 05:01:29;;;;;;;60.25;33.78;;;;;;;;;;5043480;28;20131;-73
2022/11/30 05:03:56;;;;;;;54.45;32.65;;;;;;;;;;5044782;28;20053;-73
2022/11/30 05:06:22;;;;;;;55.78;32.80;;;;;;;;;;5041400;28;20041;-72
2022/11/30 05:08:48;;;;;;;57.53;33.63;;;;;;;;;;5045093;28;20033;-73
2022/11/30 05:11:14;;;;;;;55.15;32.25;;;;;;;;;;5044030;28;20060;-73
2022/11/30 05:13:40;;;;;;;57.28;32.38;;;;;;;;;;5042543;28;20144;-70
2022/11/30 05:16:07;;;;;;;58.08;31.35;;;;;;;;;;5045201;28;20131;-72
2022/11/30 05:18:33;;;;;;;58.28;32.17;;;;;;;;;;5044490;28;20048;-73
2022/11/30 05:20:59;;;;;;;58.22;31.55;;;;;;;;;;5045410;28;20049;-73
2022/11/30 05:23:25;;;;;;;60.22;32.10;;;;;;;;;;5042995;28;20132;-72
2022/11/30 05:25:50;;;;;;;58.75;32.38;;;;;;;;;;5043358;28;20132;-69
2022/11/30 05:28:17;;;;;;;60.63;33.25;;;;;;;;;;5042440;28;20068;-73
2022/11/30 05:30:43;;;;;;;54.75;31.35;;;;;;;;;;5044063;28;20041;-70
2022/11/30 05:33:09;;;;;;;63.13;32.80;;;;;;;;;;5044126;28;20175;-72
2022/11/30 05:35:35;;;;;;;59.08;30.85;;;;;;;;;;5042429;28;20059;-73
2022/11/30 05:38:01;;;;;;;56.10;31.80;;;;;;;;;;5028732;28;20998;-73
2022/11/30 05:40:29;;;;;;;57.28;31.65;;;;;;;;;;5041461;28;20044;-73
2022/11/30 05:42:56;;;;;;;58.83;31.80;;;;;;;;;;5024980;28;20044;-72
2022/11/30 05:45:22;;;;;;;57.50;30.85;;;;;;;;;;5039416;28;20181;-73
2022/11/30 05:47:48;;;;;;;55.58;30.75;;;;;;;;;;5041887;28;20063;-71
2022/11/30 05:50:14;;;;;;;56.90;30.90;;;;;;;;;;5043717;28;20535;-73
2022/11/30 05:52:40;;;;;;;56.15;28.25;;;;;;;;;;5044050;28;20103;-70
2022/11/30 05:55:06;;;;;;;61.90;30.35;;;;;;;;;;5043301;28;20082;-73
2022/11/30 05:57:35;;;;;;;55.90;29.25;;;;;;;;;;5044004;28;20052;-73
2022/11/30 06:00:01;;;;;;;60.00;30.17;;;;;;;;;;5026270;28;20056;-72
2022/11/30 06:02:27;;;;;;;65.82;29.55;;;;;;;;;;5042960;28;20945;-72
2022/11/30 06:04:53;;;;;;;60.33;30.10;;;;;;;;;;5042928;28;20040;-71
2022/11/30 06:07:19;;;;;;;62.28;28.88;;;;;;;;;;5044564;28;20578;-73
2022/11/30 06:09:45;;;;;;;62.17;28.13;;;;;;;;;;5037869;28;20041;-70
2022/11/30 06:12:11;;;;;;;60.13;28.27;;;;;;;;;;5040679;28;20069;-72
2022/11/30 06:14:37;;;;;;;65.32;29.73;;;;;;;;;;5041921;28;20045;-73
2022/11/30 06:17:03;;;;;;;61.28;29.52;;;;;;;;;;5040468;28;20089;-73
2022/11/30 06:19:29;;;;;;;63.35;28.67;;;;;;;;;;5043377;28;20049;-73
2022/11/30 06:21:55;;;;;;;69.63;29.50;;;;;;;;;;5041138;28;20110;-71
2022/11/30 06:24:21;;;;;;;64.80;28.65;;;;;;;;;;5040529;28;20041;-73
2022/11/30 06:26:47;;;;;;;59.00;28.55;;;;;;;;;;5039080;28;20053;-73
2022/11/30 06:29:13;;;;;;;65.40;29.23;;;;;;;;;;5033341;28;20041;-73
2022/11/30 06:31:39;;;;;;;63.75;28.52;;;;;;;;;;5040022;28;20575;-70
2022/11/30 06:34:05;;;;;;;63.58;29.30;;;;;;;;;;5035759;28;20045;-71
2022/11/30 06:36:32;;;;;;;62.28;29.23;;;;;;;;;;5024267;28;20045;-71
2022/11/30 06:38:58;;;;;;;64.30;29.90;;;;;;;;;;5024550;28;20037;-70
2022/11/30 06:41:25;;;;;;;61.22;27.70;;;;;;;;;;5041962;28;20044;-72
2022/11/30 06:43:51;;;;;;;62.88;29.70;;;;;;;;;;5042519;28;20099;-72
2022/11/30 06:46:17;;;;;;;62.10;28.80;;;;;;;;;;5038078;28;20106;-72
2022/11/30 06:48:43;;;;;;;61.15;29.35;;;;;;;;;;5040153;28;20041;-72
2022/11/30 06:51:09;;;;;;;66.22;28.92;;;;;;;;;;5037383;28;20059;-70
2022/11/30 06:53:36;;;;;;;61.67;29.00;;;;;;;;;;5027690;28;20510;-71
2022/11/30 06:56:05;;;;;;;63.20;28.98;;;;;;;;;;5050059;28;20393;-72
2022/11/30 06:58:31;;;;;;;63.55;29.35;;;;;;;;;;5044912;28;20045;-72
2022/11/30 07:00:57;;;;;;;64.95;29.05;;;;;;;;;;5049367;28;20403;-72
2022/11/30 07:03:23;;;;;;;62.15;27.98;;;;;;;;;;5043433;28;20049;-72
2022/11/30 07:05:49;;;;;;;70.82;30.30;;;;;;;;;;5047487;28;20120;-72
2022/11/30 07:08:16;;;;;;;64.10;29.90;;;;;;;;;;5041421;28;20152;-72
2022/11/30 07:10:43;;;;;;;72.53;32.10;;;;;;;;;;5044670;28;20075;-72
2022/11/30 07:13:10;;;;;;;74.80;33.13;;;;;;;;;;5043407;28;20442;-70
2022/11/30 07:15:37;;;;;;;74.95;32.20;;;;;;;;;;5038256;28;20049;-70
2022/11/30 07:18:03;;;;;;;79.40;32.47;;;;;;;;;;5035383;28;20530;-72
2022/11/30 07:20:29;;;;;;;71.00;32.10;;;;;;;;;;5037841;28;20053;-72
2022/11/30 07:22:55;;;;;;;72.90;30.90;;;;;;;;;;5039142;28;20091;-73
2022/11/30 07:28:07;;;;;;;74.93;31.40;;;;;;;;;;5036522;28;20076;-71
2022/11/30 07:30:33;;;;;;;73.68;31.30;;;;;;;;;;5035840;28;20397;-72
2022/11/30 07:32:59;;;;;;;72.45;31.75;;;;;;;;;;5039234;28;20066;-72
2022/11/30 07:35:25;;;;;;;69.80;32.22;;;;;;;;;;5035587;28;20049;-70
2022/11/30 07:37:51;;;;;;;71.70;31.05;;;;;;;;;;5034086;28;20060;-72
2022/11/30 07:40:17;;;;;;;60.58;28.75;;;;;;;;;;5038521;28;20484;-70
2022/11/30 07:42:43;;;;;;;67.68;29.50;;;;;;;;;;5037693;28;20036;-71
2022/11/30 07:45:09;;;;;;;59.22;27.58;;;;;;;;;;5037303;28;20052;-72
2022/11/30 07:47:35;;;;;;;56.13;26.48;;;;;;;;;;5034522;28;20504;-72
2022/11/30 07:50:01;;;;;;;57.15;27.42;;;;;;;;;;5045842;28;20118;-70
2022/11/30 07:52:29;;;;;;;53.08;26.52;;;;;;;;;;5038063;28;20083;-71
2022/11/30 07:54:55;;;;;;;55.63;25.83;;;;;;;;;;5042715;28;20040;-71
2022/11/30 07:57:21;;;;;;;49.15;25.00;;;;;;;;;;5042202;28;20415;-72
2022/11/30 07:59:47;;;;;;;50.58;24.63;;;;;;;;;;5043751;28;20049;-71
2022/11/30 08:02:13;;;;;;;50.58;23.67;;;;;;;;;;5043646;28;20508;-70
2022/11/30 08:04:39;;;;;;;40.13;22.70;;;;;;;;;;5045194;28;20075;-72
2022/11/30 08:07:05;;;;;;;42.00;21.58;;;;;;;;;;5027433;28;20875;-71
2022/11/30 08:09:31;;;;;;;38.50;21.63;;;;;;;;;;5044315;28;20099;-71
2022/11/30 08:11:57;;;;;;;41.15;21.42;;;;;;;;;;5042521;28;20512;-72
2022/11/30 08:14:23;;;;;;;41.83;21.98;;;;;;;;;;5045797;28;20051;-72
2022/11/30 08:16:49;;;;;;;38.42;20.60;;;;;;;;;;5047796;28;20041;-72
2022/11/30 08:19:15;;;;;;;43.28;21.20;;;;;;;;;;5048301;28;20758;-70
2022/11/30 08:21:41;;;;;;;38.22;20.83;;;;;;;;;;5042060;28;20056;-71
2022/11/30 08:24:11;;;;;;;42.33;21.60;;;;;;;;;;5046413;28;20045;-72
2022/11/30 08:26:37;;;;;;;42.97;22.30;;;;;;;;;;5049590;28;20045;-72
2022/11/30 08:29:03;;;;;;;35.58;20.60;;;;;;;;;;5046797;28;20063;-70
2022/11/30 08:31:30;;;;;;;38.05;20.60;;;;;;;;;;5046498;28;20744;-71
2022/11/30 08:33:58;;;;;;;35.60;20.42;;;;;;;;;;5047153;28;20057;-72
2022/11/30 08:36:24;;;;;;;32.42;18.50;;;;;;;;;;5046236;28;20041;-72
2022/11/30 08:38:50;;;;;;;34.70;23.35;;;;;;;;;;5046265;28;20086;-72
2022/11/30 08:41:20;;;;;;;28.80;17.60;;;;;;;;;;5046045;28;20056;-72
2022/11/30 08:43:47;;;;;;;28.33;18.10;;;;;;;;;;5046172;28;20056;-71
2022/11/30 08:46:14;;;;;;;28.67;18.95;;;;;;;;;;5048138;28;20048;-72
2022/11/30 08:48:40;;;;;;;26.25;17.25;;;;;;;;;;5040201;28;20041;-72
2022/11/30 08:51:07;;;;;;;27.67;17.80;;;;;;;;;;5050134;28;20095;-72
2022/11/30 08:53:33;;;;;;;24.50;16.83;;;;;;;;;;5042804;28;20047;-72
2022/11/30 08:56:01;;;;;;;25.42;16.85;;;;;;;;;;5038004;28;20060;-72
2022/11/30 08:58:29;;;;;;;26.80;17.38;;;;;;;;;;5044676;28;20048;-72
2022/11/30 09:00:55;;;;;;;23.20;15.77;;;;;;;;;;5047244;28;20551;-71
2022/11/30 09:03:21;;;;;;;24.98;18.58;;;;;;;;;;5043826;28;20082;-70
2022/11/30 09:05:47;;;;;;;27.35;19.02;;;;;;;;;;5045839;28;20033;-70
2022/11/30 09:08:13;;;;;;;25.55;16.45;;;;;;;;;;5045736;28;20055;-71
2022/11/30 09:10:39;;;;;;;24.38;15.90;;;;;;;;;;5044293;28;20535;-71
2022/11/30 09:13:05;;;;;;;22.23;16.27;;;;;;;;;;5046660;28;20045;-72
2022/11/30 09:15:32;;;;;;;23.63;16.30;;;;;;;;;;5048836;28;20047;-72
2022/11/30 09:17:58;;;;;;;21.23;15.90;;;;;;;;;;5049083;28;20052;-72
2022/11/30 09:20:24;;;;;;;20.35;15.63;;;;;;;;;;5048227;28;20175;-71
2022/11/30 09:22:50;;;;;;;21.52;16.55;;;;;;;;;;5047154;28;20037;-72
2022/11/30 09:25:16;;;;;;;20.48;16.02;;;;;;;;;;5047026;28;20053;-73
2022/11/30 09:27:42;;;;;;;23.92;16.38;;;;;;;;;;5045715;28;20048;-70
2022/11/30 09:30:08;;;;;;;22.55;15.43;;;;;;;;;;5049239;28;20041;-73
2022/11/30 09:32:34;;;;;;;23.88;16.35;;;;;;;;;;5047391;28;20491;-72
2022/11/30 09:35:00;;;;;;;21.65;16.42;;;;;;;;;;5048712;28;20118;-71
2022/11/30 09:37:26;;;;;;;22.48;17.00;;;;;;;;;;5032933;28;20095;-71
2022/11/30 09:39:52;;;;;;;23.88;18.92;;;;;;;;;;5044710;28;20047;-71
2022/11/30 09:42:18;;;;;;;25.05;17.10;;;;;;;;;;5045814;28;20049;-71
2022/11/30 09:44:50;;;;;;;21.67;16.08;;;;;;;;;;5045454;28;20396;-71
2022/11/30 09:47:22;;;;;;;20.58;16.45;;;;;;;;;;5049890;28;20547;-70
2022/11/30 09:49:48;;;;;;;21.85;16.50;;;;;;;;;;5048130;28;20033;-71
2022/11/30 09:52:19;;;;;;;24.38;17.48;;;;;;;;;;5041539;28;20042;-71
2022/11/30 09:54:47;;;;;;;23.42;17.52;;;;;;;;;;5048562;28;20061;-70
2022/11/30 09:57:30;;;;;;;22.83;17.55;;;;;;;;;;5044006;28;20045;-70
2022/11/30 09:59:58;;;;;;;25.55;17.15;;;;;;;;;;5042825;28;20132;-72
2022/11/30 10:02:28;;;;;;;35.60;25.67;;;;;;;;;;5048242;28;20049;-72
2022/11/30 10:04:55;;;;;;;23.55;18.15;;;;;;;;;;5051079;28;20040;-72
2022/11/30 10:07:47;;;;;;;25.15;18.88;;;;;;;;;;5047593;28;20603;-71
2022/11/30 10:10:34;;;;;;;21.77;17.08;;;;;;;;;;5026363;28;20068;-71
2022/11/30 10:13:08;;;;;;;31.00;24.92;;;;;;;;;;5048601;28;20105;-72
2022/11/30 10:15:52;;;;;;;22.77;18.35;;;;;;;;;;5048270;28;20045;-73
2022/11/30 10:18:28;;;;;;;30.33;26.95;;;;;;;;;;5045138;28;20049;-72
2022/11/30 10:21:13;;;;;;;22.73;17.73;;;;;;;;;;5041711;28;20041;-71
2022/11/30 10:23:39;;;;;;;21.63;17.27;;;;;;;;;;5047336;28;20040;-72
2022/11/30 10:26:07;;;;;;;22.10;17.45;;;;;;;;;;5047518;28;20126;-72
2022/11/30 10:28:43;;;;;;;23.33;20.80;;;;;;;;;;5048478;28;20045;-72
2022/11/30 10:31:10;;;;;;;23.92;17.38;;;;;;;;;;5045228;28;20048;-72
2022/11/30 10:33:42;;;;;;;19.75;16.73;;;;;;;;;;5047406;28;20041;-72
2022/11/30 10:36:14;;;;;;;21.65;17.92;;;;;;;;;;5045927;28;20045;-72
2022/11/30 10:38:48;;;;;;;22.30;17.30;;;;;;;;;;5045244;28;20095;-71
2022/11/30 10:41:20;;;;;;;21.20;16.85;;;;;;;;;;5047394;28;20052;-72
2022/11/30 10:43:50;;;;;;;21.35;17.60;;;;;;;;;;5046734;28;20040;-72
2022/11/30 10:46:28;;;;;;;22.30;17.17;;;;;;;;;;5047351;28;20041;-72
2022/11/30 10:48:56;;;;;;;21.40;17.17;;;;;;;;;;5046732;28;20041;-71
2022/11/30 10:51:22;;;;;;;19.80;16.80;;;;;;;;;;5045321;28;20179;-71
2022/11/30 10:53:48;;;;;;;21.25;16.27;;;;;;;;;;5041961;28;20084;-71
2022/11/30 10:56:14;;;;;;;19.88;16.92;;;;;;;;;;5046103;28;20072;-71
2022/11/30 10:58:40;;;;;;;21.63;16.63;;;;;;;;;;5046032;28;20051;-71
2022/11/30 11:01:08;;;;;;;19.98;16.38;;;;;;;;;;5043300;28;20053;-71
2022/11/30 11:03:34;;;;;;;18.92;15.70;;;;;;;;;;5048117;28;20411;-70
2022/11/30 11:06:03;;;;;;;18.98;15.20;;;;;;;;;;5045363;28;20110;-70
2022/11/30 11:08:30;;;;;;;25.65;20.92;;;;;;;;;;5045920;28;20040;-70
2022/11/30 11:10:56;;;;;;;19.55;16.52;;;;;;;;;;5042698;28;20056;-70
2022/11/30 11:13:34;;;;;;;20.13;15.60;;;;;;;;;;5043590;28;20048;-69
2022/11/30 11:16:01;;;;;;;38.28;28.02;;;;;;;;;;5031945;28;20135;-70
2022/11/30 11:18:34;;;;;;;31.13;21.98;;;;;;;;;;5046414;28;20052;-70
2022/11/30 11:21:00;;;;;;;26.95;21.27;;;;;;;;;;5045369;28;20107;-72
2022/11/30 11:23:32;;;;;;;36.38;28.58;;;;;;;;;;5046730;28;20045;-70
2022/11/30 11:25:58;;;;;;;21.95;19.10;;;;;;;;;;5046995;28;20083;-71
2022/11/30 11:28:24;;;;;;;20.48;16.52;;;;;;;;;;5042533;28;20037;-70
2022/11/30 11:30:54;;;;;;;23.13;17.75;;;;;;;;;;5046711;28;20043;-70
2022/11/30 11:33:22;;;;;;;21.50;16.98;;;;;;;;;;5045033;28;20060;-70
2022/11/30 11:35:53;;;;;;;23.30;17.02;;;;;;;;;;5044020;28;20099;-70
2022/11/30 11:38:20;;;;;;;24.05;17.92;;;;;;;;;;5047848;28;20396;-69
2022/11/30 11:40:58;;;;;;;23.27;18.20;;;;;;;;;;5043715;28;20069;-70
2022/11/30 11:43:25;;;;;;;22.98;18.30;;;;;;;;;;5038381;28;20073;-71
2022/11/30 11:45:52;;;;;;;26.23;19.00;;;;;;;;;;5040751;28;20036;-70
2022/11/30 11:48:26;;;;;;;25.60;18.98;;;;;;;;;;5037270;28;20041;-70
2022/11/30 11:51:09;;;;;;;27.33;20.80;;;;;;;;;;5038615;28;20099;-72
2022/11/30 11:53:35;;;;;;;;;;;;;;;;;;5046510;28;20088;-72
2022/11/30 11:56:27;;;;;;;29.27;21.15;;;;;;;;;;5027994;28;19972;-71
2022/11/30 11:59:09;;;;;;;32.40;22.52;;;;;;;;;;5037983;28;20037;-71
2022/11/30 12:01:50;;;;;;;34.20;22.67;;;;;;;;;;5041235;28;20052;-70
2022/11/30 12:04:36;;;;;;;32.33;21.92;;;;;;;;;;5034423;28;20057;-72
2022/11/30 12:07:04;;;;;;;32.03;22.88;;;;;;;;;;5037330;28;20076;-70
2022/11/30 12:09:33;;;;;;;29.27;22.30;;;;;;;;;;5020999;28;20052;-72
2022/11/30 12:11:59;;;;;;;30.05;21.80;;;;;;;;;;5036381;28;20049;-71
2022/11/30 12:14:26;;;;;;;31.02;22.70;;;;;;;;;;5036768;28;20068;-71
2022/11/30 12:17:08;;;;;;;30.08;21.55;;;;;;;;;;5037484;28;20061;-72
2022/11/30 12:19:46;;;;;;;29.33;22.17;;;;;;;;;;5037922;28;20045;-69
2022/11/30 12:22:18;;;;;;;31.77;22.35;;;;;;;;;;5039841;28;20088;-73
2022/11/30 12:25:04;;;;;;;30.00;22.90;;;;;;;;;;5042678;28;20033;-70
2022/11/30 12:27:36;;;;;;;34.58;24.13;;;;;;;;;;5042705;28;20041;-69
2022/11/30 12:30:23;;;;;;;31.50;22.05;;;;;;;;;;5023354;28;20499;-69
2022/11/30 12:33:09;;;;;;;31.52;23.60;;;;;;;;;;5039356;28;20045;-70
2022/11/30 12:35:38;;;;;;;32.38;23.17;;;;;;;;;;5040968;28;20091;-69
2022/11/30 12:38:17;;;;;;;32.80;24.08;;;;;;;;;;5040698;28;20048;-72
2022/11/30 12:40:55;;;;;;;32.95;24.40;;;;;;;;;;5040539;28;20072;-72
2022/11/30 12:43:43;;;;;;;35.80;26.50;;;;;;;;;;5053520;28;20085;-72
2022/11/30 12:46:18;;;;;;;36.47;25.20;;;;;;;;;;5039045;28;20627;-72
2022/11/30 12:48:50;;;;;;;37.33;26.60;;;;;;;;;;5037753;28;20488;-72
2022/11/30 12:51:16;;;;;;;35.25;26.08;;;;;;;;;;5039968;28;20045;-71
2022/11/30 12:54:09;;;;;;;35.40;24.48;;;;;;;;;;5041890;28;20052;-70
2022/11/30 12:56:41;;;;;;;35.78;24.67;;;;;;;;;;5026133;28;20045;-70
2022/11/30 12:59:07;;;;;;;33.83;24.90;;;;;;;;;;5039623;28;20045;-69
2022/11/30 13:01:42;;;;;;;35.08;23.98;;;;;;;;;;5036482;28;20064;-70
2022/11/30 13:04:14;;;;;;;34.10;24.63;;;;;;;;;;5043289;28;20045;-72
2022/11/30 13:06:43;;;;;;;33.83;24.15;;;;;;;;;;5045102;28;20170;-69
2022/11/30 13:09:20;;;;;;;36.45;24.58;;;;;;;;;;5045476;28;20045;-72
2022/11/30 13:11:49;;;;;;;36.22;24.35;;;;;;;;;;5042682;28;20055;-70
2022/11/30 13:14:18;;;;;;;33.47;25.20;;;;;;;;;;5044959;28;20583;-68
2022/11/30 13:16:45;;;;;;;37.15;25.52;;;;;;;;;;5047630;28;20047;-72
2022/11/30 13:19:30;;;;;;;34.65;25.23;;;;;;;;;;5048382;28;20072;-72
2022/11/30 13:21:59;;;;;;;35.90;25.08;;;;;;;;;;5046558;28;20137;-72
2022/11/30 13:24:28;;;;;;;35.42;26.38;;;;;;;;;;5044075;28;20048;-71
2022/11/30 13:26:58;;;;;;;37.10;26.00;;;;;;;;;;5043250;28;20086;-71
2022/11/30 13:29:30;;;;;;;35.75;25.15;;;;;;;;;;5045368;28;20037;-71
2022/11/30 13:32:04;;;;;;;32.45;24.55;;;;;;;;;;5041266;28;20083;-71
2022/11/30 13:34:31;;;;;;;35.80;25.73;;;;;;;;;;5047772;28;20041;-71
2022/11/30 13:37:01;;;;;;;36.92;26.33;;;;;;;;;;5048557;28;20033;-72
2022/11/30 13:39:29;;;;;;;37.97;25.98;;;;;;;;;;5049034;28;20048;-70
2022/11/30 13:42:01;;;;;;;35.83;25.27;;;;;;;;;;5046853;28;20132;-72
2022/11/30 13:44:31;;;;;;;34.55;25.27;;;;;;;;;;5047817;28;20049;-71
2022/11/30 13:46:57;;;;;;;37.70;25.83;;;;;;;;;;5045696;28;20059;-71
2022/11/30 13:49:30;;;;;;;40.22;26.80;;;;;;;;;;5049080;28;20128;-71
2022/11/30 13:51:56;;;;;;;40.40;27.10;;;;;;;;;;5048171;28;20045;-71
2022/11/30 13:54:42;;;;;;;42.75;27.30;;;;;;;;;;5049097;28;20484;-71
2022/11/30 13:57:38;;;;;;;43.50;28.35;;;;;;;;;;5043842;28;20048;-72
2022/11/30 14:00:23;;;;;;;47.83;30.00;;;;;;;;;;5036183;28;20054;-72
2022/11/30 14:02:53;;;;;;;48.70;29.58;;;;;;;;;;5029611;28;20044;-71
2022/11/30 14:05:23;;;;;;;46.25;30.10;;;;;;;;;;5048299;28;20065;-72
2022/11/30 14:07:49;;;;;;;52.22;30.90;;;;;;;;;;5045487;28;20083;-72
2022/11/30 14:10:35;;;;;;;51.20;31.02;;;;;;;;;;5045597;28;20052;-70
2022/11/30 14:13:12;;;;;;;56.35;32.55;;;;;;;;;;5048020;28;20542;-71
2022/11/30 14:15:38;;;;;;;52.92;32.92;;;;;;;;;;5045509;28;20040;-71
2022/11/30 14:18:07;;;;;;;53.35;32.35;;;;;;;;;;5049383;28;20132;-71
2022/11/30 14:20:34;;;;;;;57.65;33.03;;;;;;;;;;5045947;28;20037;-71
2022/11/30 14:23:07;;;;;;;56.13;33.00;;;;;;;;;;5047487;28;20042;-71
2022/11/30 14:25:34;;;;;;;55.97;33.63;;;;;;;;;;5044850;28;20061;-71
2022/11/30 14:28:02;;;;;;;57.03;32.80;;;;;;;;;;5045158;28;20140;-71
2022/11/30 14:30:31;;;;;;;60.85;34.75;;;;;;;;;;5043359;28;20067;-71